createdAt,value
2019-01-22T00:00:46.628Z,-6.60
2019-01-22T00:01:53.021Z,-6.77
2019-01-22T00:02:59.410Z,-6.81
2019-01-22T00:04:05.132Z,-6.83
2019-01-22T00:05:11.548Z,-6.72
2019-01-22T00:06:17.907Z,-6.58
2019-01-22T00:07:23.931Z,-6.52
2019-01-22T00:08:30.265Z,-6.56
2019-01-22T00:09:36.625Z,-6.59
2019-01-22T00:10:43.021Z,-6.59
2019-01-22T00:11:49.413Z,-6.83
2019-01-22T00:12:55.820Z,-6.67
2019-01-22T00:14:02.222Z,-6.69
2019-01-22T00:15:08.937Z,-6.76
2019-01-22T00:16:15.384Z,-6.83
2019-01-22T00:17:21.916Z,-6.85
2019-01-22T00:18:28.381Z,-6.80
2019-01-22T00:19:34.754Z,-6.86
2019-01-22T00:20:41.795Z,-6.85
2019-01-22T00:21:48.443Z,-6.81
2019-01-22T00:22:54.865Z,-6.71
2019-01-22T00:24:01.222Z,-6.66
2019-01-22T00:25:06.947Z,-6.74
2019-01-22T00:26:13.310Z,-6.97
2019-01-22T00:27:19.672Z,-7.12
2019-01-22T00:28:26.032Z,-7.19
2019-01-22T00:29:32.076Z,-7.26
2019-01-22T00:30:38.409Z,-7.16
2019-01-22T00:31:44.725Z,-7.10
2019-01-22T00:32:51.073Z,-7.05
2019-01-22T00:33:57.413Z,-7.06
2019-01-22T00:35:03.425Z,-6.92
2019-01-22T00:36:09.939Z,-7.06
2019-01-22T00:37:16.309Z,-7.20
2019-01-22T00:38:22.761Z,-7.31
2019-01-22T00:39:29.175Z,-7.36
2019-01-22T00:40:35.170Z,-7.46
2019-01-22T00:41:41.580Z,-7.43
2019-01-22T00:42:47.227Z,-7.43
2019-01-22T00:43:53.621Z,-7.39
2019-01-22T00:44:59.951Z,-7.38
2019-01-22T00:46:05.989Z,-7.33
2019-01-22T00:47:12.340Z,-7.33
2019-01-22T00:48:18.720Z,-7.30
2019-01-22T00:49:25.091Z,-7.28
2019-01-22T00:50:31.081Z,-7.26
2019-01-22T00:51:37.544Z,-7.34
2019-01-22T00:52:43.940Z,-7.24
2019-01-22T00:53:50.369Z,-7.30
2019-01-22T00:54:56.763Z,-7.20
2019-01-22T00:56:02.806Z,-7.16
2019-01-22T00:57:08.806Z,-7.12
2019-01-22T00:58:15.165Z,-7.04
2019-01-22T00:59:21.550Z,-6.98
2019-01-22T01:00:29.984Z,-7.03
2019-01-22T01:01:36.349Z,-7.00
2019-01-22T01:02:44.329Z,-7.01
2019-01-22T01:03:51.562Z,-7.01
2019-01-22T01:04:57.881Z,-7.02
2019-01-22T01:06:03.614Z,-7.09
2019-01-22T01:07:09.589Z,-7.08
2019-01-22T01:08:15.631Z,-6.99
2019-01-22T01:09:21.999Z,-6.97
2019-01-22T01:10:27.713Z,-6.92
2019-01-22T01:11:34.116Z,-6.61
2019-01-22T01:12:40.463Z,-6.42
2019-01-22T01:13:46.858Z,-6.50
2019-01-22T01:14:52.906Z,-6.63
2019-01-22T01:15:58.857Z,-6.72
2019-01-22T01:17:04.504Z,-6.82
2019-01-22T01:18:10.894Z,-6.86
2019-01-22T01:19:17.248Z,-6.85
2019-01-22T01:20:22.925Z,-6.82
2019-01-22T01:21:29.287Z,-6.67
2019-01-22T01:22:35.637Z,-6.55
2019-01-22T01:23:42.936Z,-6.39
2019-01-22T01:24:49.316Z,-6.27
2019-01-22T01:25:55.821Z,-6.29
2019-01-22T01:27:02.155Z,-6.36
2019-01-22T01:28:08.522Z,-6.55
2019-01-22T01:29:14.967Z,-6.54
2019-01-22T01:30:20.635Z,-6.65
2019-01-22T01:31:27.018Z,-6.82
2019-01-22T01:32:33.399Z,-6.97
2019-01-22T01:33:39.823Z,-7.06
2019-01-22T01:34:46.292Z,-6.91
2019-01-22T01:35:52.652Z,-6.87
2019-01-22T01:36:58.987Z,-6.92
2019-01-22T01:38:05.074Z,-6.93
2019-01-22T01:39:11.487Z,-7.20
2019-01-22T01:40:17.185Z,-7.30
2019-01-22T01:41:23.185Z,-7.30
2019-01-22T01:42:29.547Z,-7.17
2019-01-22T01:43:35.943Z,-7.15
2019-01-22T01:44:42.293Z,-7.08
2019-01-22T01:45:48.612Z,-7.09
2019-01-22T01:46:54.960Z,-7.08
2019-01-22T01:48:01.311Z,-7.06
2019-01-22T01:49:07.657Z,-7.08
2019-01-22T01:50:13.351Z,-7.12
2019-01-22T01:51:19.672Z,-7.14
2019-01-22T01:52:26.063Z,-7.37
2019-01-22T01:53:32.450Z,-7.55
2019-01-22T01:54:38.819Z,-7.87
2019-01-22T01:55:44.787Z,-7.96
2019-01-22T01:56:51.169Z,-7.95
2019-01-22T01:57:57.562Z,-7.82
2019-01-22T01:59:03.992Z,-7.79
2019-01-22T02:00:13.071Z,-7.67
2019-01-22T02:01:19.455Z,-7.47
2019-01-22T02:02:25.837Z,-7.49
2019-01-22T02:03:32.209Z,-7.34
2019-01-22T02:04:38.212Z,-7.28
2019-01-22T02:05:44.590Z,-7.42
2019-01-22T02:06:51.010Z,-7.47
2019-01-22T02:07:57.106Z,-7.49
2019-01-22T02:09:03.247Z,-7.33
2019-01-22T02:10:09.328Z,-7.42
2019-01-22T02:11:15.681Z,-7.53
2019-01-22T02:12:21.313Z,-7.58
2019-01-22T02:13:27.630Z,-7.63
2019-01-22T02:14:33.340Z,-7.66
2019-01-22T02:15:49.824Z,-7.46
2019-01-22T02:16:57.792Z,-7.47
2019-01-22T02:18:06.023Z,-7.48
2019-01-22T02:19:11.763Z,-7.45
2019-01-22T02:20:21.934Z,-7.51
2019-01-22T02:21:40.259Z,-7.51
2019-01-22T02:22:54.443Z,-7.48
2019-01-22T02:24:06.217Z,-7.47
2019-01-22T02:25:28.300Z,-7.52
2019-01-22T02:26:34.865Z,-7.57
2019-01-22T02:27:58.310Z,-7.63
2019-01-22T02:29:11.465Z,-7.61
2019-01-22T02:30:22.739Z,-7.62
2019-01-22T02:31:32.690Z,-7.64
2019-01-22T02:32:50.331Z,-7.59
2019-01-22T02:33:59.637Z,-7.56
2019-01-22T02:35:09.841Z,-7.60
2019-01-22T02:36:24.132Z,-7.63
2019-01-22T02:37:30.587Z,-7.62
2019-01-22T02:38:44.631Z,-7.57
2019-01-22T02:39:53.762Z,-7.60
2019-01-22T02:40:59.434Z,-7.73
2019-01-22T02:42:06.031Z,-7.80
2019-01-22T02:43:23.515Z,-7.72
2019-01-22T02:44:48.753Z,-7.76
2019-01-22T02:47:35.771Z,-7.51
2019-01-22T02:50:41.856Z,-7.24
2019-01-22T02:52:01.684Z,-7.20
2019-01-22T02:53:12.083Z,-7.19
2019-01-22T02:54:17.760Z,-7.32
2019-01-22T02:55:28.239Z,-7.38
2019-01-22T02:56:48.793Z,-7.57
2019-01-22T02:58:05.976Z,-7.69
2019-01-22T02:59:24.262Z,-7.85
2019-01-22T03:00:37.337Z,-7.77
2019-01-22T03:01:52.953Z,-7.66
2019-01-22T03:03:02.130Z,-7.65
2019-01-22T03:04:21.252Z,-7.70
2019-01-22T03:05:28.313Z,-7.61
2019-01-22T03:06:45.515Z,-7.89
2019-01-22T03:07:52.141Z,-8.06
2019-01-22T03:08:58.445Z,-8.06
2019-01-22T03:11:42.014Z,-8.07
2019-01-22T03:14:30.938Z,-8.20
2019-01-22T03:15:43.134Z,-8.10
2019-01-22T03:18:44.090Z,-7.99
2019-01-22T03:19:52.275Z,-8.03
2019-01-22T03:21:03.848Z,-7.97
2019-01-22T03:22:11.046Z,-7.80
2019-01-22T03:23:20.523Z,-7.84
2019-01-22T03:24:29.947Z,-8.19
2019-01-22T03:25:36.385Z,-8.12
2019-01-22T03:26:59.857Z,-8.11
2019-01-22T03:28:09.084Z,-7.87
2019-01-22T03:29:19.166Z,-7.86
2019-01-22T03:30:31.192Z,-7.92
2019-01-22T03:31:39.195Z,-7.87
2019-01-22T03:34:59.254Z,-8.18
2019-01-22T03:36:10.523Z,-8.02
2019-01-22T03:39:08.031Z,-7.83
2019-01-22T03:40:32.181Z,-8.04
2019-01-22T03:42:00.336Z,-8.07
2019-01-22T03:54:00.225Z,-8.16
2019-01-22T03:55:10.398Z,-8.24
2019-01-22T03:56:31.751Z,-8.22
2019-01-22T03:57:37.598Z,-8.27
2019-01-22T03:58:44.247Z,-8.28
2019-01-22T03:59:50.655Z,-8.47
2019-01-22T04:00:56.494Z,-8.42
2019-01-22T04:02:02.878Z,-8.45
2019-01-22T04:03:09.610Z,-8.52
2019-01-22T04:04:16.064Z,-8.58
2019-01-22T04:05:22.511Z,-8.72
2019-01-22T04:06:28.121Z,-8.74
2019-01-22T04:07:34.196Z,-8.73
2019-01-22T04:08:40.124Z,-8.77
2019-01-22T04:09:45.833Z,-8.75
2019-01-22T04:10:51.577Z,-8.78
2019-01-22T04:11:57.843Z,-8.68
2019-01-22T04:13:03.639Z,-8.72
2019-01-22T04:14:09.767Z,-8.63
2019-01-22T04:15:16.213Z,-8.65
2019-01-22T04:16:22.610Z,-8.68
2019-01-22T04:17:28.605Z,-8.68
2019-01-22T04:18:34.747Z,-8.76
2019-01-22T04:19:41.122Z,-8.81
2019-01-22T04:20:46.840Z,-8.74
2019-01-22T04:21:52.818Z,-8.74
2019-01-22T04:22:59.270Z,-8.81
2019-01-22T04:25:47.076Z,-8.78
2019-01-22T04:27:00.132Z,-8.80
2019-01-22T04:28:16.647Z,-8.85
2019-01-22T04:29:28.153Z,-8.89
2019-01-22T04:30:51.530Z,-8.89
2019-01-22T04:31:58.703Z,-8.92
2019-01-22T04:33:10.930Z,-8.88
2019-01-22T04:36:04.838Z,-8.87
2019-01-22T04:39:14.722Z,-8.72
2019-01-22T04:40:41.534Z,-8.73
2019-01-22T04:41:53.056Z,-8.79
2019-01-22T04:43:00.446Z,-8.89
2019-01-22T04:44:06.123Z,-8.79
2019-01-22T04:45:20.271Z,-8.78
2019-01-22T04:46:30.435Z,-8.75
2019-01-22T04:47:50.681Z,-8.72
2019-01-22T04:49:17.935Z,-8.64
2019-01-22T04:52:18.514Z,-8.36
2019-01-22T04:55:17.555Z,-8.13
2019-01-22T05:08:39.336Z,-8.47
2019-01-22T05:10:04.172Z,-8.46
2019-01-22T05:11:19.477Z,-8.39
2019-01-22T05:27:19.243Z,-8.37
2019-01-22T05:28:29.116Z,-8.46
2019-01-22T05:29:38.739Z,-8.41
2019-01-22T05:30:47.777Z,-8.31
2019-01-22T05:31:55.054Z,-8.24
2019-01-22T05:33:03.611Z,-8.27
2019-01-22T05:34:15.779Z,-8.14
2019-01-22T05:37:19.342Z,-8.12
2019-01-22T05:38:34.907Z,-8.04
2019-01-22T05:39:47.038Z,-8.07
2019-01-22T05:41:24.309Z,-8.20
2019-01-22T05:42:34.725Z,-8.33
2019-01-22T05:45:55.901Z,-8.47
2019-01-22T05:47:16.473Z,-8.52
2019-01-22T05:48:25.605Z,-8.62
2019-01-22T05:49:50.732Z,-8.88
2019-01-22T05:50:57.273Z,-8.83
2019-01-22T05:53:54.951Z,-8.73
2019-01-22T06:05:49.480Z,-8.62
2019-01-22T06:06:58.149Z,-8.49
2019-01-22T06:08:03.839Z,-8.56
2019-01-22T06:09:10.345Z,-8.54
2019-01-22T06:10:31.657Z,-8.55
2019-01-22T06:11:46.017Z,-8.48
2019-01-22T06:14:38.458Z,-8.64
2019-01-22T06:15:55.211Z,-8.60
2019-01-22T06:29:15.279Z,-9.07
2019-01-22T06:31:53.526Z,-9.09
2019-01-22T06:32:59.008Z,-9.11
2019-01-22T06:34:14.604Z,-9.21
2019-01-22T06:35:24.059Z,-9.22
2019-01-22T06:36:45.425Z,-9.19
2019-01-22T06:37:56.725Z,-9.29
2019-01-22T06:39:05.846Z,-9.29
2019-01-22T06:40:27.959Z,-9.24
2019-01-22T06:43:22.566Z,-9.29
2019-01-22T06:56:53.256Z,-9.04
2019-01-22T06:58:03.391Z,-9.19
2019-01-22T07:00:49.357Z,-9.35
2019-01-22T07:02:02.385Z,-9.36
2019-01-22T07:03:11.595Z,-9.57
2019-01-22T07:04:18.623Z,-9.55
2019-01-22T07:05:31.785Z,-9.53
2019-01-22T07:06:53.308Z,-9.43
2019-01-22T07:09:50.861Z,-9.29
2019-01-22T07:11:18.762Z,-9.36
2019-01-22T07:12:26.784Z,-9.44
2019-01-22T07:15:31.486Z,-9.45
2019-01-22T07:17:20.770Z,-9.49
2019-01-22T07:18:32.249Z,-9.46
2019-01-22T07:19:44.467Z,-9.46
2019-01-22T07:20:54.853Z,-9.42
2019-01-22T07:22:00.567Z,-9.32
2019-01-22T07:23:07.928Z,-9.33
2019-01-22T07:24:20.166Z,-9.23
2019-01-22T07:25:40.251Z,-9.31
2019-01-22T07:26:47.571Z,-9.22
2019-01-22T07:27:58.765Z,-9.17
2019-01-22T07:29:07.154Z,-9.19
2019-01-22T07:30:26.155Z,-9.17
2019-01-22T07:31:46.770Z,-8.96
2019-01-22T07:33:15.741Z,-8.99
2019-01-22T07:34:32.924Z,-9.14
2019-01-22T07:35:48.495Z,-9.00
2019-01-22T07:37:03.739Z,-8.99
2019-01-22T07:38:13.658Z,-8.80
2019-01-22T07:39:21.706Z,-8.89
2019-01-22T07:42:14.439Z,-8.91
2019-01-22T07:43:27.522Z,-8.79
2019-01-22T07:44:39.339Z,-8.83
2019-01-22T07:45:47.997Z,-8.69
2019-01-22T07:47:13.489Z,-8.58
2019-01-22T07:48:56.081Z,-8.52
2019-01-22T07:50:10.826Z,-8.37
2019-01-22T07:51:32.164Z,-8.28
2019-01-22T07:52:47.192Z,-8.34
2019-01-22T07:53:52.949Z,-8.21
2019-01-22T07:55:11.316Z,-7.97
2019-01-22T07:56:24.569Z,-7.89
2019-01-22T07:57:50.706Z,-7.47
2019-01-22T07:59:25.493Z,-7.54
2019-01-22T08:00:46.015Z,-7.27
2019-01-22T08:01:59.095Z,-7.20
2019-01-22T08:03:16.235Z,-7.21
2019-01-22T08:04:45.731Z,-7.26
2019-01-22T08:05:51.150Z,-7.18
2019-01-22T08:07:00.455Z,-7.09
2019-01-22T08:08:07.691Z,-7.13
2019-01-22T08:09:31.147Z,-7.14
2019-01-22T08:10:39.548Z,-7.18
2019-01-22T08:11:46.466Z,-7.07
2019-01-22T08:14:37.469Z,-7.07
2019-01-22T08:15:43.873Z,-6.97
2019-01-22T08:16:50.955Z,-6.84
2019-01-22T08:17:59.437Z,-6.62
2019-01-22T08:19:18.635Z,-6.44
2019-01-22T08:20:31.030Z,-6.68
2019-01-22T08:21:38.219Z,-6.82
2019-01-22T08:22:47.466Z,-6.86
2019-01-22T08:25:30.873Z,-6.56
2019-01-22T08:26:44.021Z,-6.60
2019-01-22T08:29:38.530Z,-6.33
2019-01-22T08:30:56.095Z,-6.14
2019-01-22T08:32:08.329Z,-6.16
2019-01-22T08:33:17.501Z,-6.28
2019-01-22T08:36:08.901Z,-6.36
2019-01-22T08:37:20.360Z,-6.11
2019-01-22T08:38:41.434Z,-6.00
2019-01-22T08:40:01.602Z,-6.01
2019-01-22T08:41:13.253Z,-6.02
2019-01-22T08:42:25.467Z,-5.89
2019-01-22T08:43:31.823Z,-5.79
2019-01-22T08:44:38.346Z,-5.76
2019-01-22T08:45:45.009Z,-5.73
2019-01-22T08:46:52.427Z,-5.64
2019-01-22T08:48:03.925Z,-5.45
2019-01-22T08:49:16.377Z,-5.47
2019-01-22T08:50:25.870Z,-5.42
2019-01-22T08:52:48.129Z,-5.36
2019-01-22T08:55:36.084Z,-5.14
2019-01-22T08:56:48.316Z,-4.95
2019-01-22T08:57:59.398Z,-5.06
2019-01-22T08:59:07.577Z,-5.10
2019-01-22T09:00:18.841Z,-5.00
2019-01-22T09:01:26.325Z,-4.94
2019-01-22T09:02:33.553Z,-4.87
2019-01-22T09:05:26.220Z,-4.91
2019-01-22T09:06:43.782Z,-4.99
2019-01-22T09:07:56.867Z,-4.82
2019-01-22T09:09:08.441Z,-4.55
2019-01-22T09:10:42.678Z,-4.51
2019-01-22T09:11:55.097Z,-4.74
2019-01-22T09:13:09.253Z,-4.85
2019-01-22T09:14:15.790Z,-4.81
2019-01-22T09:15:25.788Z,-4.61
2019-01-22T09:16:49.142Z,-4.54
2019-01-22T09:30:30.354Z,-4.23
2019-01-22T09:32:07.353Z,-4.32
2019-01-22T09:33:24.679Z,-4.29
2019-01-22T09:36:20.943Z,-4.02
2019-01-22T09:37:26.625Z,-4.06
2019-01-22T09:38:32.682Z,-4.00
2019-01-22T09:39:39.037Z,-3.92
2019-01-22T09:40:45.042Z,-3.88
2019-01-22T09:41:51.348Z,-3.99
2019-01-22T09:42:57.696Z,-3.85
2019-01-22T09:44:04.039Z,-3.50
2019-01-22T09:45:09.698Z,-3.55
2019-01-22T09:46:15.785Z,-3.52
2019-01-22T09:47:21.404Z,-3.37
2019-01-22T09:48:27.797Z,-3.43
2019-01-22T09:49:35.451Z,-3.35
2019-01-22T09:50:40.651Z,-3.43
2019-01-22T09:51:47.005Z,-3.31
2019-01-22T09:52:53.363Z,-3.06
2019-01-22T09:53:59.352Z,-2.93
2019-01-22T09:55:05.035Z,-3.10
2019-01-22T09:56:10.974Z,-3.23
2019-01-22T09:57:17.332Z,-2.96
2019-01-22T09:58:23.725Z,-2.99
2019-01-22T09:59:30.068Z,-3.10
2019-01-22T10:00:36.107Z,-3.10
2019-01-22T10:01:42.100Z,-2.91
2019-01-22T10:02:48.456Z,-2.76
2019-01-22T10:03:54.778Z,-2.61
2019-01-22T10:05:01.681Z,-2.54
2019-01-22T10:06:07.589Z,-2.54
2019-01-22T10:07:14.024Z,-2.51
2019-01-22T10:08:20.382Z,-2.54
2019-01-22T10:09:26.718Z,-2.49
2019-01-22T10:10:32.488Z,-2.54
2019-01-22T10:11:38.113Z,-2.38
2019-01-22T10:12:44.096Z,-2.30
2019-01-22T10:13:50.523Z,-2.40
2019-01-22T10:14:56.578Z,-2.28
2019-01-22T10:16:02.250Z,-2.16
2019-01-22T10:17:08.741Z,-2.08
2019-01-22T10:18:15.104Z,-2.03
2019-01-22T10:19:21.462Z,-1.87
2019-01-22T10:20:27.845Z,-1.93
2019-01-22T10:21:33.503Z,-1.75
2019-01-22T10:22:39.566Z,-2.03
2019-01-22T10:23:46.904Z,-2.04
2019-01-22T10:24:52.098Z,-2.25
2019-01-22T10:25:58.502Z,-2.08
2019-01-22T10:27:04.482Z,-2.09
2019-01-22T10:28:10.500Z,-1.91
2019-01-22T10:29:16.833Z,-2.06
2019-01-22T10:30:23.263Z,-1.99
2019-01-22T10:31:29.272Z,-2.01
2019-01-22T10:32:35.620Z,-2.08
2019-01-22T10:33:41.966Z,-1.94
2019-01-22T10:34:48.340Z,-1.84
2019-01-22T10:35:54.698Z,-1.60
2019-01-22T10:37:01.484Z,-1.68
2019-01-22T10:38:08.514Z,-2.01
2019-01-22T10:39:17.836Z,-1.89
2019-01-22T10:40:22.518Z,-1.65
2019-01-22T10:41:28.537Z,-1.50
2019-01-22T10:42:34.916Z,-1.41
2019-01-22T10:43:41.233Z,-1.63
2019-01-22T10:44:47.622Z,-1.60
2019-01-22T10:45:54.020Z,-1.61
2019-01-22T10:47:00.368Z,-1.37
2019-01-22T10:48:06.758Z,-1.38
2019-01-22T10:49:12.737Z,-1.26
2019-01-22T10:50:19.100Z,-1.39
2019-01-22T10:51:25.530Z,-1.24
2019-01-22T10:52:31.994Z,-1.26
2019-01-22T10:53:38.334Z,-1.17
2019-01-22T10:54:44.653Z,-1.17
2019-01-22T10:55:51.062Z,-1.14
2019-01-22T10:56:57.440Z,-1.28
2019-01-22T10:58:03.839Z,-1.21
2019-01-22T10:59:09.824Z,-1.27
2019-01-22T11:00:21.281Z,-1.19
2019-01-22T11:01:28.076Z,-1.41
2019-01-22T11:02:34.484Z,-1.13
2019-01-22T11:03:40.509Z,-1.12
2019-01-22T11:04:46.832Z,-0.97
2019-01-22T11:05:53.234Z,-0.88
2019-01-22T11:06:59.600Z,-0.86
2019-01-22T11:08:05.258Z,-0.84
2019-01-22T11:09:11.632Z,-1.01
2019-01-22T11:10:17.963Z,-0.85
2019-01-22T11:11:24.523Z,-0.81
2019-01-22T11:12:31.493Z,-0.79
2019-01-22T11:13:37.867Z,-0.69
2019-01-22T11:14:44.192Z,-0.83
2019-01-22T11:15:50.588Z,-0.76
2019-01-22T11:16:57.033Z,-0.86
2019-01-22T11:18:02.740Z,-0.90
2019-01-22T11:19:08.881Z,-1.00
2019-01-22T11:20:15.415Z,-0.93
2019-01-22T11:21:22.219Z,-0.80
2019-01-22T11:22:28.584Z,-0.66
2019-01-22T11:23:35.339Z,-0.53
2019-01-22T11:24:41.299Z,-0.49
2019-01-22T11:25:47.800Z,-0.30
2019-01-22T11:26:54.156Z,-0.15
2019-01-22T11:28:00.147Z,-0.21
2019-01-22T11:29:06.498Z,-0.43
2019-01-22T11:30:12.187Z,-0.32
2019-01-22T11:31:18.564Z,-0.29
2019-01-22T11:32:24.978Z,-0.27
2019-01-22T11:33:33.402Z,-0.03
2019-01-22T11:34:37.809Z,0.15
2019-01-22T11:35:44.146Z,0.23
2019-01-22T11:36:50.486Z,0.27
2019-01-22T11:37:57.038Z,-0.05
2019-01-22T11:39:02.980Z,-0.23
2019-01-22T11:40:13.148Z,-0.32
2019-01-22T11:41:19.189Z,-0.17
2019-01-22T11:42:26.324Z,0.07
2019-01-22T11:43:33.130Z,0.18
2019-01-22T11:44:39.448Z,0.18
2019-01-22T11:45:45.847Z,0.00
2019-01-22T11:46:52.221Z,-0.03
2019-01-22T11:47:57.820Z,0.09
2019-01-22T11:49:03.769Z,0.22
2019-01-22T11:50:10.301Z,-0.19
2019-01-22T11:51:16.672Z,0.02
2019-01-22T11:52:22.989Z,0.24
2019-01-22T11:53:29.363Z,-0.19
2019-01-22T11:54:35.771Z,-0.35
2019-01-22T11:55:42.367Z,-0.35
2019-01-22T11:56:48.420Z,-0.09
2019-01-22T11:57:54.783Z,0.13
2019-01-22T11:59:01.150Z,0.33
2019-01-22T12:00:10.222Z,0.16
2019-01-22T12:01:16.838Z,-0.21
2019-01-22T12:02:23.212Z,-0.30
2019-01-22T12:03:30.243Z,-0.04
2019-01-22T12:04:37.101Z,0.05
2019-01-22T12:05:43.942Z,0.26
2019-01-22T12:06:50.324Z,0.18
2019-01-22T12:07:56.690Z,0.30
2019-01-22T12:09:02.822Z,0.24
2019-01-22T12:10:08.422Z,0.36
2019-01-22T12:11:14.801Z,0.42
2019-01-22T12:12:21.148Z,0.55
2019-01-22T12:13:27.434Z,0.60
2019-01-22T12:14:33.768Z,0.39
2019-01-22T12:15:39.822Z,0.25
2019-01-22T12:16:46.193Z,0.09
2019-01-22T12:17:52.199Z,0.15
2019-01-22T12:18:58.540Z,0.20
2019-01-22T12:20:04.205Z,0.30
2019-01-22T12:21:10.260Z,0.16
2019-01-22T12:22:16.731Z,-0.19
2019-01-22T12:23:23.119Z,-0.19
2019-01-22T12:24:29.741Z,-0.08
2019-01-22T12:25:35.758Z,0.15
2019-01-22T12:26:42.097Z,0.10
2019-01-22T12:27:48.519Z,0.06
2019-01-22T12:28:54.899Z,0.24
2019-01-22T12:30:01.281Z,0.29
2019-01-22T12:31:07.646Z,0.24
2019-01-22T12:32:13.972Z,0.05
2019-01-22T12:33:20.388Z,-0.17
2019-01-22T12:34:26.766Z,-0.08
2019-01-22T12:35:32.753Z,0.16
2019-01-22T12:36:39.110Z,-0.04
2019-01-22T12:37:45.449Z,0.23
2019-01-22T12:38:51.800Z,0.39
2019-01-22T12:39:58.172Z,0.35
2019-01-22T12:41:03.836Z,0.13
2019-01-22T12:42:10.234Z,0.08
2019-01-22T12:43:16.627Z,0.20
2019-01-22T12:44:22.937Z,0.05
2019-01-22T12:45:29.396Z,0.13
2019-01-22T12:46:36.468Z,-0.03
2019-01-22T12:47:42.767Z,-0.09
2019-01-22T12:48:49.083Z,0.26
2019-01-22T12:49:55.424Z,0.11
2019-01-22T12:51:01.861Z,-0.10
2019-01-22T12:52:08.258Z,-0.33
2019-01-22T12:53:14.220Z,-0.34
2019-01-22T12:54:20.560Z,-0.16
2019-01-22T12:55:26.617Z,-0.33
2019-01-22T12:56:33.003Z,-0.30
2019-01-22T12:57:39.347Z,-0.23
2019-01-22T12:58:45.673Z,-0.31
2019-01-22T12:59:52.025Z,0.00
2019-01-22T13:00:57.978Z,-0.02
2019-01-22T13:02:03.685Z,0.02
2019-01-22T13:03:09.367Z,0.04
2019-01-22T13:04:15.672Z,0.20
2019-01-22T13:05:34.386Z,0.47
2019-01-22T13:06:40.427Z,0.56
2019-01-22T13:07:47.453Z,0.14
2019-01-22T13:08:54.517Z,0.19
2019-01-22T13:10:01.175Z,0.60
2019-01-22T13:11:07.219Z,1.00
2019-01-22T13:12:13.635Z,1.01
2019-01-22T13:13:19.984Z,0.38
2019-01-22T13:14:26.330Z,-0.02
2019-01-22T13:15:32.633Z,0.22
2019-01-22T13:16:38.997Z,0.42
2019-01-22T13:17:45.338Z,0.81
2019-01-22T13:18:51.677Z,0.95
2019-01-22T13:19:58.030Z,0.44
2019-01-22T13:21:03.795Z,0.17
2019-01-22T13:22:10.178Z,0.01
2019-01-22T13:23:16.464Z,0.36
2019-01-22T13:24:22.451Z,0.57
2019-01-22T13:25:28.780Z,0.54
2019-01-22T13:26:35.171Z,0.86
2019-01-22T13:27:41.557Z,1.34
2019-01-22T13:28:47.979Z,1.30
2019-01-22T13:30:01.122Z,1.25
2019-01-22T13:31:00.768Z,1.62
2019-01-22T13:32:07.141Z,0.97
2019-01-22T13:33:13.473Z,1.40
2019-01-22T13:34:20.096Z,1.14
2019-01-22T13:35:26.245Z,1.19
2019-01-22T13:36:32.551Z,1.47
2019-01-22T13:37:39.660Z,1.67
2019-01-22T13:38:46.017Z,1.71
2019-01-22T13:39:53.304Z,1.82
2019-01-22T13:40:59.580Z,2.23
2019-01-22T13:42:05.998Z,1.73
2019-01-22T13:43:12.396Z,0.88
2019-01-22T13:44:18.780Z,0.80
2019-01-22T13:45:27.970Z,0.74
2019-01-22T13:46:34.296Z,0.95
2019-01-22T13:47:40.665Z,1.04
2019-01-22T13:48:47.047Z,1.16
2019-01-22T13:49:53.363Z,0.73
2019-01-22T13:51:00.032Z,0.78
2019-01-22T13:52:06.095Z,0.94
2019-01-22T13:53:12.494Z,1.42
2019-01-22T13:54:18.685Z,1.43
2019-01-22T13:55:26.608Z,1.59
2019-01-22T13:56:32.971Z,1.49
2019-01-22T13:57:39.357Z,1.41
2019-01-22T13:58:45.726Z,1.54
2019-01-22T13:59:52.084Z,1.70
2019-01-22T14:00:58.397Z,1.95
2019-01-22T14:02:04.397Z,1.15
2019-01-22T14:03:10.432Z,0.95
2019-01-22T14:04:16.879Z,0.96
2019-01-22T14:05:23.235Z,0.75
2019-01-22T14:06:29.547Z,0.70
2019-01-22T14:07:35.947Z,0.69
2019-01-22T14:08:42.294Z,0.39
2019-01-22T14:09:48.622Z,0.38
2019-01-22T14:10:55.888Z,0.36
2019-01-22T14:12:02.751Z,0.33
2019-01-22T14:13:09.059Z,0.58
2019-01-22T14:14:15.422Z,0.79
2019-01-22T14:15:22.392Z,0.76
2019-01-22T14:16:28.732Z,0.57
2019-01-22T14:17:35.146Z,0.45
2019-01-22T14:18:41.595Z,0.23
2019-01-22T14:19:48.026Z,0.11
2019-01-22T14:20:54.409Z,0.19
2019-01-22T14:22:01.241Z,-0.01
2019-01-22T14:23:07.288Z,0.03
2019-01-22T14:24:13.679Z,0.03
2019-01-22T14:25:20.369Z,-0.07
2019-01-22T14:26:26.762Z,0.03
2019-01-22T14:27:33.137Z,0.01
2019-01-22T14:28:39.492Z,-0.26
2019-01-22T14:29:45.507Z,-0.24
2019-01-22T14:30:51.849Z,-0.31
2019-01-22T14:31:58.254Z,-0.43
2019-01-22T14:33:04.072Z,-0.55
2019-01-22T14:34:10.460Z,-0.47
2019-01-22T14:35:16.487Z,-0.42
2019-01-22T14:36:22.859Z,-0.30
2019-01-22T14:37:30.149Z,-0.38
2019-01-22T14:38:36.502Z,-0.51
2019-01-22T14:39:42.840Z,-0.60
2019-01-22T14:40:49.263Z,-0.61
2019-01-22T14:41:55.618Z,-0.62
2019-01-22T14:43:02.095Z,-0.58
2019-01-22T14:44:08.100Z,-0.51
2019-01-22T14:45:13.780Z,-0.62
2019-01-22T14:46:20.177Z,-0.64
2019-01-22T14:47:26.629Z,-0.71
2019-01-22T14:48:33.022Z,-0.70
2019-01-22T14:49:39.429Z,-0.64
2019-01-22T14:50:45.900Z,-0.70
2019-01-22T14:51:51.929Z,-0.67
2019-01-22T14:52:58.354Z,-0.60
2019-01-22T14:54:05.005Z,-0.69
2019-01-22T14:55:11.077Z,-0.72
2019-01-22T14:56:17.433Z,-0.73
2019-01-22T14:57:23.939Z,-0.74
2019-01-22T14:58:30.278Z,-0.74
2019-01-22T14:59:36.651Z,-0.77
2019-01-22T15:00:43.064Z,-0.83
2019-01-22T15:01:49.473Z,-0.87
2019-01-22T15:02:55.201Z,-0.88
2019-01-22T15:04:01.649Z,-0.89
2019-01-22T15:05:07.319Z,-0.88
2019-01-22T15:06:13.840Z,-0.90
2019-01-22T15:07:20.264Z,-0.94
2019-01-22T15:08:26.632Z,-0.94
2019-01-22T15:09:33.068Z,-0.97
2019-01-22T15:10:39.416Z,-0.93
2019-01-22T15:11:45.789Z,-1.03
2019-01-22T15:12:52.139Z,-1.05
2019-01-22T15:13:58.509Z,-1.06
2019-01-22T15:15:04.201Z,-1.09
2019-01-22T15:16:10.542Z,-1.09
2019-01-22T15:17:16.927Z,-1.12
2019-01-22T15:18:23.291Z,-1.12
2019-01-22T15:19:29.699Z,-1.07
2019-01-22T15:20:36.090Z,-0.98
2019-01-22T15:21:42.450Z,-1.09
2019-01-22T15:22:48.477Z,-1.17
2019-01-22T15:23:54.835Z,-1.16
2019-01-22T15:25:01.264Z,-1.17
2019-01-22T15:26:07.645Z,-1.25
2019-01-22T15:27:13.982Z,-1.30
2019-01-22T15:28:20.401Z,-1.27
2019-01-22T15:29:26.771Z,-1.26
2019-01-22T15:30:33.167Z,-1.27
2019-01-22T15:31:39.132Z,-1.28
2019-01-22T15:32:45.161Z,-1.24
2019-01-22T15:33:51.528Z,-1.28
2019-01-22T15:34:57.891Z,-1.35
2019-01-22T15:36:03.844Z,-1.39
2019-01-22T15:37:10.178Z,-1.35
2019-01-22T15:38:16.665Z,-1.38
2019-01-22T15:39:23.043Z,-1.39
2019-01-22T15:40:29.974Z,-1.46
2019-01-22T15:41:35.955Z,-1.47
2019-01-22T15:42:41.994Z,-1.50
2019-01-22T15:43:48.421Z,-1.50
2019-01-22T15:44:54.769Z,-1.60
2019-01-22T15:46:01.449Z,-1.65
2019-01-22T15:47:07.775Z,-1.63
2019-01-22T15:48:14.136Z,-1.73
2019-01-22T15:49:20.479Z,-1.71
2019-01-22T15:50:26.814Z,-1.72
2019-01-22T15:51:33.165Z,-1.68
2019-01-22T15:52:39.562Z,-1.66
2019-01-22T15:53:45.899Z,-1.66
2019-01-22T15:54:51.893Z,-1.66
2019-01-22T15:55:57.933Z,-1.67
2019-01-22T15:57:03.939Z,-1.73
2019-01-22T15:58:10.361Z,-1.68
2019-01-22T15:59:16.716Z,-1.72
2019-01-22T16:00:22.417Z,-1.74
2019-01-22T16:01:29.463Z,-1.69
2019-01-22T16:02:36.225Z,-1.77
2019-01-22T16:03:42.699Z,-1.84
2019-01-22T16:04:49.040Z,-1.88
2019-01-22T16:05:55.382Z,-1.92
2019-01-22T16:07:01.817Z,-1.92
2019-01-22T16:08:08.165Z,-1.83
2019-01-22T16:09:14.651Z,-1.90
2019-01-22T16:10:20.671Z,-1.93
2019-01-22T16:11:27.069Z,-1.97
2019-01-22T16:12:33.483Z,-2.02
2019-01-22T16:13:39.898Z,-1.99
2019-01-22T16:14:46.293Z,-2.07
2019-01-22T16:15:52.703Z,-1.96
2019-01-22T16:16:59.037Z,-2.12
2019-01-22T16:18:05.246Z,-2.14
2019-01-22T16:19:11.606Z,-2.13
2019-01-22T16:20:19.790Z,-2.04
2019-01-22T16:21:26.140Z,-2.11
2019-01-22T16:22:32.947Z,-2.12
2019-01-22T16:23:39.983Z,-2.15
2019-01-22T16:24:46.494Z,-2.08
2019-01-22T16:25:52.576Z,-2.10
2019-01-22T16:26:58.889Z,-2.13
2019-01-22T16:28:05.127Z,-2.08
2019-01-22T16:29:11.174Z,-2.22
2019-01-22T16:30:17.788Z,-2.19
2019-01-22T16:31:24.097Z,-2.39
2019-01-22T16:32:30.456Z,-2.42
2019-01-22T16:33:36.832Z,-2.45
2019-01-22T16:34:43.251Z,-2.38
2019-01-22T16:35:49.644Z,-2.35
2019-01-22T16:36:55.975Z,-2.39
2019-01-22T16:38:02.517Z,-2.42
2019-01-22T16:39:08.182Z,-2.39
2019-01-22T16:40:13.919Z,-2.36
2019-01-22T16:41:19.911Z,-2.41
2019-01-22T16:42:26.341Z,-2.28
2019-01-22T16:43:32.845Z,-2.18
2019-01-22T16:44:39.606Z,-2.38
2019-01-22T16:45:46.046Z,-2.62
2019-01-22T16:46:52.396Z,-2.68
2019-01-22T16:47:58.589Z,-2.74
2019-01-22T16:49:04.966Z,-2.78
2019-01-22T16:50:10.634Z,-2.84
2019-01-22T16:51:17.011Z,-2.84
2019-01-22T16:52:23.514Z,-2.78
2019-01-22T16:53:29.872Z,-2.80
2019-01-22T16:54:36.689Z,-2.77
2019-01-22T16:55:43.123Z,-2.75
2019-01-22T16:56:49.490Z,-2.82
2019-01-22T16:57:55.971Z,-2.81
2019-01-22T16:59:02.367Z,-2.92
2019-01-22T17:00:08.883Z,-2.88
2019-01-22T17:01:15.361Z,-2.85
2019-01-22T17:02:21.878Z,-2.86
2019-01-22T17:03:28.450Z,-2.88